sensor_id;sensor_type;location;lat;lon;timestamp;P1;durP1;ratioP1;P2;durP2;ratioP2
7336;SDS011;54510;42.016;23.098;2023-02-01T00:01:32;4.93;;;3.00;;
7336;SDS011;54510;42.016;23.098;2023-02-01T00:03:57;3.80;;;2.20;;
7336;SDS011;54510;42.016;23.098;2023-02-01T00:06:23;4.80;;;2.42;;
7336;SDS011;54510;42.016;23.098;2023-02-01T00:08:48;6.20;;;2.67;;
7336;SDS011;54510;42.016;23.098;2023-02-01T00:11:14;4.03;;;2.20;;
7336;SDS011;54510;42.016;23.098;2023-02-01T00:13:40;5.15;;;2.55;;
7336;SDS011;54510;42.016;23.098;2023-02-01T00:18:33;5.38;;;2.60;;
7336;SDS011;54510;42.016;23.098;2023-02-01T00:20:59;5.10;;;2.85;;
7336;SDS011;54510;42.016;23.098;2023-02-01T00:23:24;4.03;;;2.25;;
7336;SDS011;54510;42.016;23.098;2023-02-01T00:25:50;5.47;;;2.90;;
7336;SDS011;54510;42.016;23.098;2023-02-01T00:28:16;4.82;;;2.42;;
7336;SDS011;54510;42.016;23.098;2023-02-01T00:30:41;5.80;;;2.42;;
7336;SDS011;54510;42.016;23.098;2023-02-01T00:33:06;3.65;;;2.35;;
7336;SDS011;54510;42.016;23.098;2023-02-01T00:35:33;5.15;;;2.50;;
7336;SDS011;54510;42.016;23.098;2023-02-01T00:37:59;5.63;;;2.40;;
7336;SDS011;54510;42.016;23.098;2023-02-01T00:40:25;4.43;;;2.85;;
7336;SDS011;54510;42.016;23.098;2023-02-01T00:42:51;5.75;;;2.40;;
7336;SDS011;54510;42.016;23.098;2023-02-01T00:45:16;6.93;;;2.53;;
7336;SDS011;54510;42.016;23.098;2023-02-01T00:47:42;5.22;;;2.70;;
7336;SDS011;54510;42.016;23.098;2023-02-01T00:50:08;5.25;;;2.75;;
7336;SDS011;54510;42.016;23.098;2023-02-01T00:52:33;8.63;;;2.72;;
7336;SDS011;54510;42.016;23.098;2023-02-01T00:54:59;4.78;;;2.33;;
7336;SDS011;54510;42.016;23.098;2023-02-01T00:57:24;4.95;;;2.78;;
7336;SDS011;54510;42.016;23.098;2023-02-01T00:59:50;3.88;;;2.40;;
7336;SDS011;54510;42.016;23.098;2023-02-01T01:02:15;5.82;;;2.50;;
7336;SDS011;54510;42.016;23.098;2023-02-01T01:04:40;3.78;;;2.83;;
7336;SDS011;54510;42.016;23.098;2023-02-01T01:07:06;5.63;;;3.08;;
7336;SDS011;54510;42.016;23.098;2023-02-01T01:09:31;6.60;;;3.40;;
7336;SDS011;54510;42.016;23.098;2023-02-01T01:11:57;4.75;;;3.55;;
7336;SDS011;54510;42.016;23.098;2023-02-01T01:14:27;7.60;;;3.63;;
7336;SDS011;54510;42.016;23.098;2023-02-01T01:16:53;5.10;;;3.60;;
7336;SDS011;54510;42.016;23.098;2023-02-01T01:19:18;5.18;;;2.70;;
7336;SDS011;54510;42.016;23.098;2023-02-01T01:21:44;4.53;;;3.00;;
7336;SDS011;54510;42.016;23.098;2023-02-01T01:24:09;6.10;;;3.47;;
7336;SDS011;54510;42.016;23.098;2023-02-01T01:26:35;5.68;;;3.25;;
7336;SDS011;54510;42.016;23.098;2023-02-01T01:29:00;5.68;;;3.38;;
7336;SDS011;54510;42.016;23.098;2023-02-01T01:31:26;3.05;;;2.35;;
7336;SDS011;54510;42.016;23.098;2023-02-01T01:33:52;4.95;;;2.83;;
7336;SDS011;54510;42.016;23.098;2023-02-01T01:36:20;5.78;;;3.10;;
7336;SDS011;54510;42.016;23.098;2023-02-01T01:38:46;6.18;;;2.88;;
7336;SDS011;54510;42.016;23.098;2023-02-01T01:41:17;5.10;;;2.40;;
7336;SDS011;54510;42.016;23.098;2023-02-01T01:43:49;6.57;;;2.67;;
7336;SDS011;54510;42.016;23.098;2023-02-01T01:46:18;3.15;;;2.58;;
7336;SDS011;54510;42.016;23.098;2023-02-01T01:48:45;4.63;;;2.45;;
7336;SDS011;54510;42.016;23.098;2023-02-01T01:51:13;3.13;;;2.15;;
7336;SDS011;54510;42.016;23.098;2023-02-01T01:53:43;3.13;;;2.25;;
7336;SDS011;54510;42.016;23.098;2023-02-01T01:56:13;3.92;;;2.67;;
7336;SDS011;54510;42.016;23.098;2023-02-01T01:58:39;4.80;;;2.78;;
7336;SDS011;54510;42.016;23.098;2023-02-01T02:01:05;8.10;;;2.75;;
7336;SDS011;54510;42.016;23.098;2023-02-01T02:03:39;4.10;;;2.38;;
7336;SDS011;54510;42.016;23.098;2023-02-01T02:06:14;4.40;;;2.78;;
7336;SDS011;54510;42.016;23.098;2023-02-01T02:08:45;4.28;;;2.33;;
7336;SDS011;54510;42.016;23.098;2023-02-01T02:11:10;3.80;;;2.33;;
7336;SDS011;54510;42.016;23.098;2023-02-01T02:13:40;3.85;;;2.42;;
7336;SDS011;54510;42.016;23.098;2023-02-01T02:26:46;5.47;;;2.40;;
7336;SDS011;54510;42.016;23.098;2023-02-01T02:32:23;4.05;;;2.95;;
7336;SDS011;54510;42.016;23.098;2023-02-01T02:34:55;6.57;;;3.15;;
7336;SDS011;54510;42.016;23.098;2023-02-01T02:45:52;5.32;;;3.05;;
7336;SDS011;54510;42.016;23.098;2023-02-01T02:51:41;6.30;;;3.97;;
7336;SDS011;54510;42.016;23.098;2023-02-01T02:54:31;8.25;;;3.13;;
7336;SDS011;54510;42.016;23.098;2023-02-01T02:57:13;6.60;;;3.50;;
7336;SDS011;54510;42.016;23.098;2023-02-01T03:00:11;4.25;;;2.70;;
7336;SDS011;54510;42.016;23.098;2023-02-01T03:02:57;6.80;;;3.63;;
7336;SDS011;54510;42.016;23.098;2023-02-01T03:05:43;8.85;;;4.10;;
7336;SDS011;54510;42.016;23.098;2023-02-01T03:08:17;5.78;;;3.42;;
7336;SDS011;54510;42.016;23.098;2023-02-01T03:13:36;11.38;;;7.22;;
7336;SDS011;54510;42.016;23.098;2023-02-01T03:24:25;17.47;;;11.30;;
7336;SDS011;54510;42.016;23.098;2023-02-01T03:27:22;15.35;;;9.70;;
7336;SDS011;54510;42.016;23.098;2023-02-01T03:29:48;25.70;;;14.98;;
7336;SDS011;54510;42.016;23.098;2023-02-01T03:32:19;34.55;;;21.67;;
7336;SDS011;54510;42.016;23.098;2023-02-01T03:34:46;39.35;;;24.60;;
7336;SDS011;54510;42.016;23.098;2023-02-01T03:37:13;32.90;;;19.63;;
7336;SDS011;54510;42.016;23.098;2023-02-01T03:42:19;15.65;;;10.23;;
7336;SDS011;54510;42.016;23.098;2023-02-01T03:47:25;10.68;;;7.45;;
7336;SDS011;54510;42.016;23.098;2023-02-01T03:55:23;5.88;;;3.70;;
7336;SDS011;54510;42.016;23.098;2023-02-01T03:57:57;6.10;;;4.15;;
7336;SDS011;54510;42.016;23.098;2023-02-01T04:00:25;5.53;;;3.45;;
7336;SDS011;54510;42.016;23.098;2023-02-01T04:02:51;6.10;;;3.30;;
7336;SDS011;54510;42.016;23.098;2023-02-01T04:05:17;4.40;;;2.80;;
7336;SDS011;54510;42.016;23.098;2023-02-01T04:07:44;5.90;;;3.53;;
7336;SDS011;54510;42.016;23.098;2023-02-01T04:10:09;5.22;;;2.90;;
7336;SDS011;54510;42.016;23.098;2023-02-01T04:12:36;4.60;;;2.80;;
7336;SDS011;54510;42.016;23.098;2023-02-01T04:15:02;4.57;;;3.35;;
7336;SDS011;54510;42.016;23.098;2023-02-01T04:17:28;7.35;;;3.40;;
7336;SDS011;54510;42.016;23.098;2023-02-01T04:19:54;10.45;;;4.03;;
7336;SDS011;54510;42.016;23.098;2023-02-01T04:22:19;8.68;;;4.45;;
7336;SDS011;54510;42.016;23.098;2023-02-01T04:24:45;11.23;;;4.60;;
7336;SDS011;54510;42.016;23.098;2023-02-01T04:27:10;13.10;;;4.65;;
7336;SDS011;54510;42.016;23.098;2023-02-01T04:29:36;8.77;;;4.07;;
7336;SDS011;54510;42.016;23.098;2023-02-01T04:32:01;15.35;;;4.43;;
7336;SDS011;54510;42.016;23.098;2023-02-01T04:34:27;6.60;;;4.30;;
7336;SDS011;54510;42.016;23.098;2023-02-01T04:36:52;6.10;;;3.85;;
7336;SDS011;54510;42.016;23.098;2023-02-01T04:39:17;9.50;;;5.13;;
7336;SDS011;54510;42.016;23.098;2023-02-01T04:41:43;4.50;;;3.53;;
7336;SDS011;54510;42.016;23.098;2023-02-01T04:44:13;8.25;;;4.47;;
7336;SDS011;54510;42.016;23.098;2023-02-01T04:46:39;8.57;;;3.85;;
7336;SDS011;54510;42.016;23.098;2023-02-01T04:49:05;8.80;;;4.70;;
7336;SDS011;54510;42.016;23.098;2023-02-01T04:51:30;9.82;;;4.57;;
7336;SDS011;54510;42.016;23.098;2023-02-01T04:53:56;7.50;;;4.25;;
7336;SDS011;54510;42.016;23.098;2023-02-01T04:56:21;7.57;;;4.32;;
7336;SDS011;54510;42.016;23.098;2023-02-01T04:58:47;8.73;;;4.13;;
7336;SDS011;54510;42.016;23.098;2023-02-01T05:01:12;5.80;;;3.35;;
7336;SDS011;54510;42.016;23.098;2023-02-01T05:03:38;8.15;;;4.38;;
7336;SDS011;54510;42.016;23.098;2023-02-01T05:06:03;5.20;;;3.90;;
7336;SDS011;54510;42.016;23.098;2023-02-01T05:08:30;8.52;;;4.10;;
7336;SDS011;54510;42.016;23.098;2023-02-01T05:10:55;17.15;;;4.72;;
7336;SDS011;54510;42.016;23.098;2023-02-01T05:13:21;7.65;;;4.10;;
7336;SDS011;54510;42.016;23.098;2023-02-01T05:16:05;8.02;;;3.20;;
7336;SDS011;54510;42.016;23.098;2023-02-01T05:18:30;7.22;;;4.38;;
7336;SDS011;54510;42.016;23.098;2023-02-01T05:20:56;9.55;;;4.32;;
7336;SDS011;54510;42.016;23.098;2023-02-01T05:23:21;8.25;;;3.90;;
7336;SDS011;54510;42.016;23.098;2023-02-01T05:25:47;7.85;;;4.45;;
7336;SDS011;54510;42.016;23.098;2023-02-01T05:28:12;6.20;;;3.53;;
7336;SDS011;54510;42.016;23.098;2023-02-01T05:30:38;4.85;;;2.83;;
7336;SDS011;54510;42.016;23.098;2023-02-01T05:33:03;7.30;;;2.55;;
7336;SDS011;54510;42.016;23.098;2023-02-01T05:35:29;4.63;;;2.15;;
7336;SDS011;54510;42.016;23.098;2023-02-01T05:37:55;6.68;;;2.50;;
7336;SDS011;54510;42.016;23.098;2023-02-01T05:40:20;8.65;;;2.45;;
7336;SDS011;54510;42.016;23.098;2023-02-01T05:42:46;6.03;;;2.30;;
7336;SDS011;54510;42.016;23.098;2023-02-01T05:45:11;6.70;;;2.30;;
7336;SDS011;54510;42.016;23.098;2023-02-01T05:47:36;8.00;;;3.45;;
7336;SDS011;54510;42.016;23.098;2023-02-01T05:50:03;23.70;;;9.98;;
7336;SDS011;54510;42.016;23.098;2023-02-01T05:52:29;6.80;;;2.83;;
7336;SDS011;54510;42.016;23.098;2023-02-01T05:54:54;24.27;;;13.23;;
7336;SDS011;54510;42.016;23.098;2023-02-01T05:57:19;5.78;;;3.50;;
7336;SDS011;54510;42.016;23.098;2023-02-01T05:59:45;13.93;;;5.43;;
7336;SDS011;54510;42.016;23.098;2023-02-01T06:02:11;8.18;;;3.03;;
7336;SDS011;54510;42.016;23.098;2023-02-01T06:04:37;11.43;;;4.50;;
7336;SDS011;54510;42.016;23.098;2023-02-01T06:07:04;6.75;;;3.38;;
7336;SDS011;54510;42.016;23.098;2023-02-01T06:09:30;11.32;;;3.38;;
7336;SDS011;54510;42.016;23.098;2023-02-01T06:11:56;11.15;;;4.05;;
7336;SDS011;54510;42.016;23.098;2023-02-01T06:14:21;7.47;;;4.18;;
7336;SDS011;54510;42.016;23.098;2023-02-01T06:16:46;6.28;;;3.05;;
7336;SDS011;54510;42.016;23.098;2023-02-01T06:19:12;8.05;;;2.88;;
7336;SDS011;54510;42.016;23.098;2023-02-01T06:21:38;8.23;;;3.22;;
7336;SDS011;54510;42.016;23.098;2023-02-01T06:24:04;9.77;;;4.45;;
7336;SDS011;54510;42.016;23.098;2023-02-01T06:26:31;15.18;;;6.13;;
7336;SDS011;54510;42.016;23.098;2023-02-01T06:28:56;11.85;;;5.20;;
7336;SDS011;54510;42.016;23.098;2023-02-01T06:31:22;17.92;;;6.07;;
7336;SDS011;54510;42.016;23.098;2023-02-01T06:33:48;16.05;;;6.43;;
7336;SDS011;54510;42.016;23.098;2023-02-01T06:36:13;11.77;;;5.53;;
7336;SDS011;54510;42.016;23.098;2023-02-01T06:38:40;11.55;;;6.55;;
7336;SDS011;54510;42.016;23.098;2023-02-01T06:41:06;10.05;;;5.07;;
7336;SDS011;54510;42.016;23.098;2023-02-01T06:43:31;11.38;;;4.68;;
7336;SDS011;54510;42.016;23.098;2023-02-01T06:46:01;10.63;;;4.88;;
7336;SDS011;54510;42.016;23.098;2023-02-01T06:48:28;13.60;;;4.80;;
7336;SDS011;54510;42.016;23.098;2023-02-01T06:50:53;16.92;;;7.35;;
7336;SDS011;54510;42.016;23.098;2023-02-01T06:53:19;14.88;;;4.88;;
7336;SDS011;54510;42.016;23.098;2023-02-01T06:56:00;19.50;;;8.88;;
7336;SDS011;54510;42.016;23.098;2023-02-01T06:58:28;26.27;;;10.48;;
7336;SDS011;54510;42.016;23.098;2023-02-01T07:00:54;26.63;;;12.40;;
7336;SDS011;54510;42.016;23.098;2023-02-01T07:03:20;12.23;;;6.65;;
7336;SDS011;54510;42.016;23.098;2023-02-01T07:05:45;44.67;;;20.38;;
7336;SDS011;54510;42.016;23.098;2023-02-01T07:08:10;15.82;;;8.75;;
7336;SDS011;54510;42.016;23.098;2023-02-01T07:10:36;24.17;;;9.90;;
7336;SDS011;54510;42.016;23.098;2023-02-01T07:13:02;40.97;;;20.35;;
7336;SDS011;54510;42.016;23.098;2023-02-01T07:15:27;31.17;;;13.25;;
7336;SDS011;54510;42.016;23.098;2023-02-01T07:17:55;21.45;;;9.25;;
7336;SDS011;54510;42.016;23.098;2023-02-01T07:20:21;20.83;;;7.38;;
7336;SDS011;54510;42.016;23.098;2023-02-01T07:22:47;19.27;;;8.07;;
7336;SDS011;54510;42.016;23.098;2023-02-01T07:25:13;14.38;;;6.65;;
7336;SDS011;54510;42.016;23.098;2023-02-01T07:27:38;32.78;;;15.73;;
7336;SDS011;54510;42.016;23.098;2023-02-01T07:30:04;21.08;;;11.63;;
7336;SDS011;54510;42.016;23.098;2023-02-01T07:32:30;7.60;;;4.30;;
7336;SDS011;54510;42.016;23.098;2023-02-01T07:34:56;13.57;;;6.55;;
7336;SDS011;54510;42.016;23.098;2023-02-01T07:37:22;11.30;;;6.20;;
7336;SDS011;54510;42.016;23.098;2023-02-01T07:39:49;36.70;;;18.55;;
7336;SDS011;54510;42.016;23.098;2023-02-01T07:42:15;16.02;;;8.10;;
7336;SDS011;54510;42.016;23.098;2023-02-01T07:44:40;7.85;;;4.07;;
7336;SDS011;54510;42.016;23.098;2023-02-01T07:47:06;27.80;;;14.57;;
7336;SDS011;54510;42.016;23.098;2023-02-01T07:49:31;13.07;;;4.65;;
7336;SDS011;54510;42.016;23.098;2023-02-01T07:51:57;6.60;;;2.83;;
7336;SDS011;54510;42.016;23.098;2023-02-01T07:54:22;9.70;;;3.75;;
7336;SDS011;54510;42.016;23.098;2023-02-01T07:56:48;6.00;;;3.75;;
7336;SDS011;54510;42.016;23.098;2023-02-01T07:59:13;7.28;;;3.85;;
7336;SDS011;54510;42.016;23.098;2023-02-01T08:01:40;4.68;;;2.03;;
7336;SDS011;54510;42.016;23.098;2023-02-01T08:04:05;7.05;;;3.05;;
7336;SDS011;54510;42.016;23.098;2023-02-01T08:06:31;13.25;;;2.92;;
7336;SDS011;54510;42.016;23.098;2023-02-01T08:08:58;10.00;;;2.92;;
7336;SDS011;54510;42.016;23.098;2023-02-01T08:11:25;7.22;;;3.03;;
7336;SDS011;54510;42.016;23.098;2023-02-01T08:13:51;8.73;;;3.75;;
7336;SDS011;54510;42.016;23.098;2023-02-01T08:16:18;6.57;;;3.28;;
7336;SDS011;54510;42.016;23.098;2023-02-01T08:18:44;7.40;;;2.45;;
7336;SDS011;54510;42.016;23.098;2023-02-01T08:21:11;8.63;;;2.70;;
7336;SDS011;54510;42.016;23.098;2023-02-01T08:23:40;8.18;;;2.85;;
7336;SDS011;54510;42.016;23.098;2023-02-01T08:28:38;6.45;;;3.05;;
7336;SDS011;54510;42.016;23.098;2023-02-01T08:31:09;5.35;;;2.78;;
7336;SDS011;54510;42.016;23.098;2023-02-01T08:33:37;6.35;;;2.75;;
7336;SDS011;54510;42.016;23.098;2023-02-01T08:36:06;4.88;;;2.78;;
7336;SDS011;54510;42.016;23.098;2023-02-01T08:38:34;12.13;;;3.65;;
7336;SDS011;54510;42.016;23.098;2023-02-01T08:41:03;8.80;;;3.60;;
7336;SDS011;54510;42.016;23.098;2023-02-01T08:43:33;9.60;;;3.63;;
7336;SDS011;54510;42.016;23.098;2023-02-01T08:45:59;10.02;;;3.72;;
7336;SDS011;54510;42.016;23.098;2023-02-01T08:48:24;7.38;;;3.00;;
7336;SDS011;54510;42.016;23.098;2023-02-01T08:50:50;7.55;;;3.15;;
7336;SDS011;54510;42.016;23.098;2023-02-01T08:53:15;6.05;;;3.25;;
7336;SDS011;54510;42.016;23.098;2023-02-01T08:55:41;10.07;;;4.13;;
7336;SDS011;54510;42.016;23.098;2023-02-01T08:58:06;6.80;;;3.65;;
7336;SDS011;54510;42.016;23.098;2023-02-01T09:00:32;12.65;;;3.67;;
7336;SDS011;54510;42.016;23.098;2023-02-01T09:02:57;9.80;;;4.30;;
7336;SDS011;54510;42.016;23.098;2023-02-01T09:05:23;10.65;;;4.90;;
7336;SDS011;54510;42.016;23.098;2023-02-01T09:07:51;9.82;;;5.10;;
7336;SDS011;54510;42.016;23.098;2023-02-01T09:10:17;9.88;;;3.20;;
7336;SDS011;54510;42.016;23.098;2023-02-01T09:12:43;5.55;;;3.20;;
7336;SDS011;54510;42.016;23.098;2023-02-01T09:15:09;7.13;;;3.15;;
7336;SDS011;54510;42.016;23.098;2023-02-01T09:17:34;6.53;;;2.42;;
7336;SDS011;54510;42.016;23.098;2023-02-01T09:20:00;6.10;;;3.20;;
7336;SDS011;54510;42.016;23.098;2023-02-01T09:22:25;9.85;;;2.45;;
7336;SDS011;54510;42.016;23.098;2023-02-01T09:24:52;7.78;;;2.38;;
7336;SDS011;54510;42.016;23.098;2023-02-01T09:27:18;12.90;;;4.55;;
7336;SDS011;54510;42.016;23.098;2023-02-01T09:29:43;6.10;;;2.60;;
7336;SDS011;54510;42.016;23.098;2023-02-01T09:32:09;11.73;;;3.65;;
7336;SDS011;54510;42.016;23.098;2023-02-01T09:34:34;8.10;;;3.33;;
7336;SDS011;54510;42.016;23.098;2023-02-01T09:37:00;10.45;;;3.65;;
7336;SDS011;54510;42.016;23.098;2023-02-01T09:39:25;4.70;;;1.95;;
7336;SDS011;54510;42.016;23.098;2023-02-01T09:47:17;7.60;;;3.17;;
7336;SDS011;54510;42.016;23.098;2023-02-01T09:52:17;8.63;;;3.63;;
7336;SDS011;54510;42.016;23.098;2023-02-01T09:54:52;11.90;;;4.03;;
7336;SDS011;54510;42.016;23.098;2023-02-01T09:57:26;3.95;;;2.17;;
7336;SDS011;54510;42.016;23.098;2023-02-01T10:00:04;7.35;;;3.28;;
7336;SDS011;54510;42.016;23.098;2023-02-01T10:02:40;8.23;;;2.78;;
7336;SDS011;54510;42.016;23.098;2023-02-01T10:05:11;8.45;;;2.60;;
7336;SDS011;54510;42.016;23.098;2023-02-01T10:08:23;4.07;;;1.53;;
7336;SDS011;54510;42.016;23.098;2023-02-01T10:10:35;4.47;;;2.10;;
7336;SDS011;54510;42.016;23.098;2023-02-01T10:18:49;3.42;;;1.88;;
7336;SDS011;54510;42.016;23.098;2023-02-01T10:24:41;3.42;;;1.90;;
7336;SDS011;54510;42.016;23.098;2023-02-01T10:27:14;3.90;;;2.10;;
7336;SDS011;54510;42.016;23.098;2023-02-01T10:29:54;4.75;;;2.03;;
7336;SDS011;54510;42.016;23.098;2023-02-01T10:32:24;8.50;;;2.70;;
7336;SDS011;54510;42.016;23.098;2023-02-01T10:34:58;6.47;;;2.28;;
7336;SDS011;54510;42.016;23.098;2023-02-01T10:37:32;5.55;;;2.08;;
7336;SDS011;54510;42.016;23.098;2023-02-01T10:40:02;7.00;;;2.22;;
7336;SDS011;54510;42.016;23.098;2023-02-01T10:45:13;4.30;;;2.00;;
7336;SDS011;54510;42.016;23.098;2023-02-01T10:47:43;4.68;;;1.75;;
7336;SDS011;54510;42.016;23.098;2023-02-01T10:52:45;7.88;;;1.70;;
7336;SDS011;54510;42.016;23.098;2023-02-01T10:55:34;5.85;;;2.55;;
7336;SDS011;54510;42.016;23.098;2023-02-01T10:58:10;7.40;;;3.33;;
7336;SDS011;54510;42.016;23.098;2023-02-01T11:00:42;5.15;;;1.90;;
7336;SDS011;54510;42.016;23.098;2023-02-01T11:05:55;6.32;;;2.00;;
7336;SDS011;54510;42.016;23.098;2023-02-01T11:08:21;5.80;;;2.15;;
7336;SDS011;54510;42.016;23.098;2023-02-01T11:10:47;6.18;;;2.70;;
7336;SDS011;54510;42.016;23.098;2023-02-01T11:13:21;5.15;;;1.90;;
7336;SDS011;54510;42.016;23.098;2023-02-01T11:15:58;4.93;;;2.05;;
7336;SDS011;54510;42.016;23.098;2023-02-01T11:18:27;5.40;;;1.83;;
7336;SDS011;54510;42.016;23.098;2023-02-01T11:20:54;4.80;;;1.95;;
7336;SDS011;54510;42.016;23.098;2023-02-01T11:23:24;3.15;;;1.83;;
7336;SDS011;54510;42.016;23.098;2023-02-01T11:25:53;6.75;;;2.53;;
7336;SDS011;54510;42.016;23.098;2023-02-01T11:28:21;3.42;;;1.80;;
7336;SDS011;54510;42.016;23.098;2023-02-01T11:30:51;2.88;;;1.33;;
7336;SDS011;54510;42.016;23.098;2023-02-01T11:33:22;5.40;;;1.83;;
7336;SDS011;54510;42.016;23.098;2023-02-01T11:35:54;5.05;;;2.22;;
7336;SDS011;54510;42.016;23.098;2023-02-01T11:38:28;3.17;;;1.30;;
7336;SDS011;54510;42.016;23.098;2023-02-01T11:40:55;7.97;;;2.15;;
7336;SDS011;54510;42.016;23.098;2023-02-01T11:43:36;4.18;;;1.45;;
7336;SDS011;54510;42.016;23.098;2023-02-01T11:46:02;3.72;;;1.30;;
7336;SDS011;54510;42.016;23.098;2023-02-01T11:48:39;4.90;;;2.58;;
7336;SDS011;54510;42.016;23.098;2023-02-01T11:53:42;4.13;;;0.90;;
7336;SDS011;54510;42.016;23.098;2023-02-01T11:56:18;3.72;;;1.35;;
7336;SDS011;54510;42.016;23.098;2023-02-01T12:02:26;4.95;;;1.60;;
7336;SDS011;54510;42.016;23.098;2023-02-01T12:13:09;3.60;;;1.55;;
7336;SDS011;54510;42.016;23.098;2023-02-01T12:24:38;2.15;;;1.05;;
7336;SDS011;54510;42.016;23.098;2023-02-01T12:38:20;6.97;;;1.85;;
7336;SDS011;54510;42.016;23.098;2023-02-01T12:43:47;3.75;;;1.40;;
7336;SDS011;54510;42.016;23.098;2023-02-01T12:46:17;4.68;;;1.90;;
7336;SDS011;54510;42.016;23.098;2023-02-01T12:51:36;5.60;;;2.25;;
7336;SDS011;54510;42.016;23.098;2023-02-01T12:54:16;4.57;;;2.53;;
7336;SDS011;54510;42.016;23.098;2023-02-01T12:56:51;8.32;;;3.00;;
7336;SDS011;54510;42.016;23.098;2023-02-01T12:59:34;5.63;;;1.88;;
7336;SDS011;54510;42.016;23.098;2023-02-01T13:05:16;6.50;;;1.88;;
7336;SDS011;54510;42.016;23.098;2023-02-01T13:10:30;6.75;;;1.60;;
7336;SDS011;54510;42.016;23.098;2023-02-01T13:15:57;4.95;;;1.80;;
7336;SDS011;54510;42.016;23.098;2023-02-01T13:18:35;6.88;;;2.20;;
7336;SDS011;54510;42.016;23.098;2023-02-01T13:21:14;4.45;;;1.80;;
7336;SDS011;54510;42.016;23.098;2023-02-01T13:23:45;5.10;;;2.53;;
7336;SDS011;54510;42.016;23.098;2023-02-01T13:26:12;7.57;;;2.17;;
7336;SDS011;54510;42.016;23.098;2023-02-01T13:28:46;8.38;;;2.83;;
7336;SDS011;54510;42.016;23.098;2023-02-01T13:39:48;7.13;;;1.70;;
7336;SDS011;54510;42.016;23.098;2023-02-01T13:42:33;6.78;;;2.47;;
7336;SDS011;54510;42.016;23.098;2023-02-01T13:45:13;8.15;;;2.03;;
7336;SDS011;54510;42.016;23.098;2023-02-01T13:47:43;7.28;;;1.73;;
7336;SDS011;54510;42.016;23.098;2023-02-01T13:50:23;5.20;;;1.92;;
7336;SDS011;54510;42.016;23.098;2023-02-01T13:52:59;2.65;;;1.73;;
7336;SDS011;54510;42.016;23.098;2023-02-01T13:55:36;6.13;;;2.00;;
7336;SDS011;54510;42.016;23.098;2023-02-01T13:58:18;5.50;;;1.92;;
7336;SDS011;54510;42.016;23.098;2023-02-01T14:01:32;3.72;;;2.00;;
7336;SDS011;54510;42.016;23.098;2023-02-01T14:03:55;4.65;;;2.55;;
7336;SDS011;54510;42.016;23.098;2023-02-01T14:11:36;12.25;;;4.25;;
7336;SDS011;54510;42.016;23.098;2023-02-01T14:16:57;6.15;;;3.05;;
7336;SDS011;54510;42.016;23.098;2023-02-01T14:19:46;6.05;;;1.83;;
7336;SDS011;54510;42.016;23.098;2023-02-01T14:24:52;8.48;;;3.88;;
7336;SDS011;54510;42.016;23.098;2023-02-01T14:27:24;11.95;;;4.15;;
7336;SDS011;54510;42.016;23.098;2023-02-01T14:29:59;11.25;;;5.00;;
7336;SDS011;54510;42.016;23.098;2023-02-01T14:32:38;6.93;;;2.55;;
7336;SDS011;54510;42.016;23.098;2023-02-01T14:35:07;3.38;;;2.15;;
7336;SDS011;54510;42.016;23.098;2023-02-01T14:37:42;10.02;;;4.20;;
7336;SDS011;54510;42.016;23.098;2023-02-01T14:42:47;6.40;;;2.60;;
7336;SDS011;54510;42.016;23.098;2023-02-01T14:45:59;9.80;;;2.10;;
7336;SDS011;54510;42.016;23.098;2023-02-01T14:58:15;10.93;;;2.85;;
7336;SDS011;54510;42.016;23.098;2023-02-01T15:01:46;7.68;;;2.83;;
7336;SDS011;54510;42.016;23.098;2023-02-01T15:09:16;6.73;;;3.80;;
7336;SDS011;54510;42.016;23.098;2023-02-01T15:14:28;9.70;;;4.97;;
7336;SDS011;54510;42.016;23.098;2023-02-01T15:16:59;9.82;;;4.03;;
7336;SDS011;54510;42.016;23.098;2023-02-01T15:19:25;8.27;;;3.67;;
7336;SDS011;54510;42.016;23.098;2023-02-01T15:21:55;10.63;;;4.68;;
7336;SDS011;54510;42.016;23.098;2023-02-01T15:24:23;9.32;;;3.85;;
7336;SDS011;54510;42.016;23.098;2023-02-01T15:26:49;13.48;;;5.35;;
7336;SDS011;54510;42.016;23.098;2023-02-01T15:29:16;11.20;;;5.15;;
7336;SDS011;54510;42.016;23.098;2023-02-01T15:31:44;14.88;;;5.82;;
7336;SDS011;54510;42.016;23.098;2023-02-01T15:34:12;13.27;;;5.88;;
7336;SDS011;54510;42.016;23.098;2023-02-01T15:36:38;14.38;;;6.18;;
7336;SDS011;54510;42.016;23.098;2023-02-01T15:41:49;18.35;;;7.68;;
7336;SDS011;54510;42.016;23.098;2023-02-01T15:44:38;25.58;;;9.18;;
7336;SDS011;54510;42.016;23.098;2023-02-01T15:47:14;23.15;;;10.05;;
7336;SDS011;54510;42.016;23.098;2023-02-01T15:49:43;17.15;;;8.75;;
7336;SDS011;54510;42.016;23.098;2023-02-01T15:52:16;26.60;;;8.88;;
7336;SDS011;54510;42.016;23.098;2023-02-01T15:55:20;79.95;;;38.25;;
7336;SDS011;54510;42.016;23.098;2023-02-01T15:57:59;43.88;;;21.67;;
7336;SDS011;54510;42.016;23.098;2023-02-01T16:00:28;48.72;;;25.85;;
7336;SDS011;54510;42.016;23.098;2023-02-01T16:03:00;56.38;;;28.65;;
7336;SDS011;54510;42.016;23.098;2023-02-01T16:05:37;30.70;;;17.92;;
7336;SDS011;54510;42.016;23.098;2023-02-01T16:08:15;30.25;;;18.20;;
7336;SDS011;54510;42.016;23.098;2023-02-01T16:10:46;36.58;;;21.23;;
7336;SDS011;54510;42.016;23.098;2023-02-01T16:13:17;14.55;;;8.57;;
7336;SDS011;54510;42.016;23.098;2023-02-01T16:15:45;21.10;;;10.38;;
7336;SDS011;54510;42.016;23.098;2023-02-01T16:18:11;33.53;;;19.25;;
7336;SDS011;54510;42.016;23.098;2023-02-01T16:20:38;36.47;;;22.23;;
7336;SDS011;54510;42.016;23.098;2023-02-01T16:23:05;42.88;;;23.38;;
7336;SDS011;54510;42.016;23.098;2023-02-01T16:25:32;62.97;;;35.97;;
7336;SDS011;54510;42.016;23.098;2023-02-01T16:27:57;54.75;;;31.70;;
7336;SDS011;54510;42.016;23.098;2023-02-01T16:30:23;54.25;;;29.27;;
7336;SDS011;54510;42.016;23.098;2023-02-01T16:32:55;44.72;;;26.75;;
7336;SDS011;54510;42.016;23.098;2023-02-01T16:35:30;48.72;;;27.90;;
7336;SDS011;54510;42.016;23.098;2023-02-01T16:38:02;44.85;;;25.08;;
7336;SDS011;54510;42.016;23.098;2023-02-01T16:40:33;43.20;;;22.95;;
7336;SDS011;54510;42.016;23.098;2023-02-01T16:42:59;44.47;;;23.02;;
7336;SDS011;54510;42.016;23.098;2023-02-01T16:45:25;47.08;;;25.30;;
7336;SDS011;54510;42.016;23.098;2023-02-01T16:47:52;49.47;;;24.00;;
7336;SDS011;54510;42.016;23.098;2023-02-01T16:50:20;33.05;;;16.73;;
7336;SDS011;54510;42.016;23.098;2023-02-01T16:52:48;34.15;;;18.10;;
7336;SDS011;54510;42.016;23.098;2023-02-01T16:55:14;30.75;;;18.25;;
7336;SDS011;54510;42.016;23.098;2023-02-01T16:57:42;25.63;;;14.07;;
7336;SDS011;54510;42.016;23.098;2023-02-01T17:00:09;26.55;;;14.52;;
7336;SDS011;54510;42.016;23.098;2023-02-01T17:02:36;26.85;;;14.48;;
7336;SDS011;54510;42.016;23.098;2023-02-01T17:05:03;28.05;;;14.13;;
7336;SDS011;54510;42.016;23.098;2023-02-01T17:07:29;24.33;;;13.27;;
7336;SDS011;54510;42.016;23.098;2023-02-01T17:09:55;27.50;;;12.30;;
7336;SDS011;54510;42.016;23.098;2023-02-01T17:12:28;21.40;;;11.15;;
7336;SDS011;54510;42.016;23.098;2023-02-01T17:14:57;21.55;;;11.38;;
7336;SDS011;54510;42.016;23.098;2023-02-01T17:17:23;23.55;;;12.25;;
7336;SDS011;54510;42.016;23.098;2023-02-01T17:19:52;23.17;;;12.02;;
7336;SDS011;54510;42.016;23.098;2023-02-01T17:22:21;25.65;;;13.95;;
7336;SDS011;54510;42.016;23.098;2023-02-01T17:24:48;34.55;;;16.73;;
7336;SDS011;54510;42.016;23.098;2023-02-01T17:27:15;21.35;;;11.43;;
7336;SDS011;54510;42.016;23.098;2023-02-01T17:29:41;23.20;;;11.45;;
7336;SDS011;54510;42.016;23.098;2023-02-01T17:32:28;25.92;;;13.30;;
7336;SDS011;54510;42.016;23.098;2023-02-01T17:34:53;36.75;;;17.38;;
7336;SDS011;54510;42.016;23.098;2023-02-01T17:39:44;20.98;;;10.70;;
7336;SDS011;54510;42.016;23.098;2023-02-01T17:42:24;13.50;;;7.50;;
7336;SDS011;54510;42.016;23.098;2023-02-01T17:44:57;22.70;;;12.55;;